TRA9Z LOWI-EHRD
Flight info
| Callsign | TRA9Z |
|---|---|
| Flight time | N/A |
| Altitude | 36000 |
| Route | KPT L608 TEDGO DCT LIRSU DCT SOGRI L608 BUB Y28 HELEN |
| Aircraft | B738/M-SDE2E3FGHIJ1P2RWXY/LB1 |
Departure
| Time | N/A |
|---|---|
| Airport | Innsbruck Airport (LOWI) |
Arrival
| Time | 2026-04-30 18:28 |
|---|---|
| Airport | Rotterdam The Hague Airport (EHRD) |
| Time | Latitude | Longitude | Altitude | Speed | Heading |
|---|---|---|---|---|---|
| 2026-04-30 17:39 | 48.55922 | 9.33531 | 36291 ft | 439 kts | 324° |
| 2026-04-30 17:42 | 48.76987 | 9.00030 | 36294 ft | 444 kts | 316° |
| 2026-04-30 17:43 | 48.87288 | 8.82324 | 36288 ft | 451 kts | 316° |
| 2026-04-30 17:44 | 48.99743 | 8.60758 | 36282 ft | 455 kts | 315° |
| 2026-04-30 17:47 | 49.18448 | 8.28031 | 36283 ft | 453 kts | 315° |
| 2026-04-30 17:48 | 49.32803 | 8.02638 | 36267 ft | 451 kts | 315° |
| 2026-04-30 17:50 | 49.49149 | 7.73421 | 36286 ft | 452 kts | 314° |
| 2026-04-30 17:52 | 49.61415 | 7.51279 | 36285 ft | 454 kts | 313° |
| 2026-04-30 17:54 | 49.79858 | 7.17627 | 36293 ft | 457 kts | 313° |
| 2026-04-30 17:56 | 49.94660 | 6.85420 | 36281 ft | 461 kts | 306° |
| 2026-04-30 17:58 | 50.05723 | 6.61043 | 36283 ft | 460 kts | 307° |
| 2026-04-30 18:00 | 50.20439 | 6.28352 | 36276 ft | 461 kts | 306° |
| 2026-04-30 18:01 | 50.29578 | 6.07825 | 36279 ft | 462 kts | 307° |
| 2026-04-30 18:02 | 50.40584 | 5.82893 | 36266 ft | 464 kts | 306° |
| 2026-04-30 18:03 | 50.45865 | 5.70835 | 36235 ft | 426 kts | 306° |
| 2026-04-30 18:04 | 50.50667 | 5.59828 | 36259 ft | 395 kts | 306° |
| 2026-04-30 18:05 | 50.57017 | 5.45222 | 34953 ft | 414 kts | 305° |
| 2026-04-30 18:06 | 50.63736 | 5.29659 | 32267 ft | 425 kts | 305° |
| 2026-04-30 18:07 | 50.69965 | 5.15142 | 31684 ft | 388 kts | 305° |
| 2026-04-30 18:08 | 50.74507 | 5.04518 | 30557 ft | 406 kts | 304° |
| 2026-04-30 18:09 | 50.81313 | 4.88514 | 28538 ft | 445 kts | 304° |
| 2026-04-30 18:10 | 50.88058 | 4.72541 | 26636 ft | 429 kts | 304° |
| 2026-04-30 18:11 | 50.94576 | 4.57021 | 24816 ft | 418 kts | 304° |
| 2026-04-30 18:11 | 50.99367 | 4.45553 | 23355 ft | 413 kts | 304° |
| 2026-04-30 18:12 | 51.04060 | 4.34270 | 21949 ft | 404 kts | 303° |
| 2026-04-30 18:13 | 51.07133 | 4.26858 | 21061 ft | 398 kts | 303° |
| 2026-04-30 18:13 | 51.11147 | 4.17139 | 19902 ft | 391 kts | 303° |
| 2026-04-30 18:14 | 51.14613 | 4.08718 | 18877 ft | 387 kts | 303° |
| 2026-04-30 18:15 | 51.19002 | 3.98019 | 17487 ft | 381 kts | 303° |
| 2026-04-30 18:15 | 51.24092 | 3.88828 | 15956 ft | 370 kts | 342° |
| 2026-04-30 18:16 | 51.29035 | 3.88554 | 15050 ft | 352 kts | 18° |
| 2026-04-30 18:16 | 51.33633 | 3.91031 | 13646 ft | 347 kts | 23° |
| 2026-04-30 18:17 | 51.35924 | 3.92362 | 12943 ft | 344 kts | 23° |
| 2026-04-30 18:17 | 51.38135 | 3.93640 | 12310 ft | 340 kts | 23° |
| 2026-04-30 18:17 | 51.42560 | 3.96166 | 10998 ft | 335 kts | 23° |
| 2026-04-30 18:18 | 51.44782 | 3.97423 | 10536 ft | 336 kts | 23° |
| 2026-04-30 18:18 | 51.46958 | 3.98651 | 10406 ft | 335 kts | 23° |
| 2026-04-30 18:18 | 51.49122 | 3.99867 | 10288 ft | 324 kts | 23° |
| 2026-04-30 18:18 | 51.51199 | 4.01031 | 10241 ft | 309 kts | 23° |
| 2026-04-30 18:19 | 51.53184 | 4.02142 | 10023 ft | 296 kts | 23° |
| 2026-04-30 18:19 | 51.55116 | 4.03231 | 9525 ft | 294 kts | 24° |
| 2026-04-30 18:19 | 51.57040 | 4.04317 | 9006 ft | 293 kts | 24° |
| 2026-04-30 18:19 | 51.58955 | 4.05400 | 8498 ft | 291 kts | 24° |
| 2026-04-30 18:20 | 51.60866 | 4.06480 | 8026 ft | 289 kts | 24° |
| 2026-04-30 18:20 | 51.62756 | 4.07548 | 7563 ft | 287 kts | 24° |
| 2026-04-30 18:20 | 51.64633 | 4.08610 | 7095 ft | 286 kts | 24° |
| 2026-04-30 18:20 | 51.66503 | 4.09669 | 6656 ft | 283 kts | 24° |
| 2026-04-30 18:21 | 51.68360 | 4.10721 | 6165 ft | 282 kts | 24° |
| 2026-04-30 18:21 | 51.70209 | 4.11770 | 5675 ft | 281 kts | 24° |
| 2026-04-30 18:21 | 51.72042 | 4.12809 | 5227 ft | 278 kts | 25° |
| 2026-04-30 18:21 | 51.73864 | 4.13844 | 4742 ft | 277 kts | 25° |
| 2026-04-30 18:22 | 51.75680 | 4.14877 | 4250 ft | 276 kts | 25° |
| 2026-04-30 18:22 | 51.79222 | 4.16889 | 3520 ft | 265 kts | 26° |
| 2026-04-30 18:22 | 51.80953 | 4.17876 | 3078 ft | 261 kts | 26° |
| 2026-04-30 18:23 | 51.82646 | 4.18840 | 2527 ft | 256 kts | 26° |
| 2026-04-30 18:23 | 51.84317 | 4.19795 | 2197 ft | 255 kts | 26° |
| 2026-04-30 18:23 | 51.85943 | 4.20780 | 2057 ft | 238 kts | 33° |
| 2026-04-30 18:23 | 51.87040 | 4.22439 | 2001 ft | 199 kts | 62° |
| 2026-04-30 18:24 | 51.88390 | 4.25659 | 1953 ft | 147 kts | 65° |
| 2026-04-30 18:24 | 51.88924 | 4.27001 | 2000 ft | 138 kts | 65° |
| 2026-04-30 18:24 | 51.89257 | 4.27841 | 2038 ft | 132 kts | 65° |
| 2026-04-30 18:25 | 51.89921 | 4.29519 | 1961 ft | 134 kts | 65° |
| 2026-04-30 18:25 | 51.90761 | 4.31635 | 1657 ft | 131 kts | 67° |
| 2026-04-30 18:25 | 51.91244 | 4.32851 | 1483 ft | 127 kts | 66° |
| 2026-04-30 18:26 | 51.92215 | 4.35302 | 1155 ft | 131 kts | 64° |
| 2026-04-30 18:26 | 51.92710 | 4.36541 | 972 ft | 130 kts | 64° |
| 2026-04-30 18:26 | 51.93199 | 4.37773 | 798 ft | 130 kts | 63° |
| 2026-04-30 18:27 | 51.94168 | 4.40208 | 435 ft | 127 kts | 62° |
| 2026-04-30 18:27 | 51.94659 | 4.41428 | 280 ft | 131 kts | 61° |
| 2026-04-30 18:28 | 51.95644 | 4.43920 | 0 ft | 109 kts | 57° |
| 2026-04-30 18:28 | 51.95868 | 4.44476 | -3 ft | 32 kts | 57° |
| 2026-04-30 18:28 | 51.95864 | 4.44727 | 0 ft | 14 kts | 148° |
| 2026-04-30 18:29 | 51.95769 | 4.44716 | 0 ft | 16 kts | 233° |
| 2026-04-30 18:29 | 51.95600 | 4.44293 | 0 ft | 14 kts | 238° |
| 2026-04-30 18:30 | 51.95501 | 4.44048 | 0 ft | 13 kts | 236° |
| 2026-04-30 18:30 | 51.95408 | 4.43812 | 0 ft | 12 kts | 237° |
| 2026-04-30 18:31 | 51.95363 | 4.43700 | 0 ft | 12 kts | 237° |
| 2026-04-30 18:31 | 51.95264 | 4.43517 | 0 ft | 11 kts | 172° |
| 2026-04-30 18:32 | 51.95134 | 4.43624 | 1 ft | 10 kts | 149° |
| 2026-04-30 18:32 | 51.95088 | 4.43565 | 0 ft | 8 kts | 237° |
| 2026-04-30 18:32 | 51.95109 | 4.43490 | 0 ft | 0 kts | 324° |
| 2026-04-30 18:33 | 51.95110 | 4.43488 | 0 ft | 0 kts | 325° |